SJP weather

San Jacinto Airport
Padilla, Cauca Department, Colombia

Public forecast

Using degrees Celsius for public forecast. Weather courtesy of forecast.io.

METAR (pilot weather report)

Closest report is Alfonso Bonilla Aragon International Airport, 21.7 nm (40.2 km) N. Retrieved 2019/08/24 09:00 UTC (4 minutes ago):

SKCL 240900Z 08005KT 9999 FEW040 SCT120 20/19 A3000 NOSIG

TAF (pilot weather forecast)

Closest forecast is Alfonso Bonilla Aragon International Airport, 21.7 nm (40.2 km) N. Retrieved 2019/08/24 06:39 UTC (2 hours ago):

TAF SKCL 240430Z 2406/2506 VRB03KT 9999 SCT025 SCT090 BECMG 2418/2420 33010KT TX33/2419Z TN18/2411Z